createdAt,value
2024-03-02T00:00:32.053Z,51.216080
2024-03-02T00:01:32.154Z,51.216068
2024-03-02T00:02:31.986Z,51.216160
2024-03-02T00:03:31.973Z,51.216125
2024-03-02T00:04:31.980Z,51.216137
2024-03-02T00:05:31.961Z,51.216061
2024-03-02T00:06:31.971Z,51.216057
2024-03-02T00:07:31.949Z,51.216011
2024-03-02T00:08:31.948Z,51.216080
2024-03-02T00:09:31.965Z,51.216267
2024-03-02T00:10:31.925Z,51.216164
2024-03-02T00:11:32.005Z,51.216152
2024-03-02T00:12:31.930Z,51.216122
2024-03-02T00:13:31.905Z,51.216221
2024-03-02T00:14:31.936Z,51.216042
2024-03-02T00:15:31.902Z,51.215981
2024-03-02T00:16:31.926Z,51.216129
2024-03-02T00:17:31.893Z,51.216122
2024-03-02T00:18:31.931Z,51.216290
2024-03-02T00:19:31.864Z,51.216061
2024-03-02T00:20:31.868Z,51.216000
2024-03-02T00:21:31.880Z,51.215931
2024-03-02T00:22:31.854Z,51.216080
2024-03-02T00:23:31.868Z,51.216099
2024-03-02T00:24:31.856Z,51.216064
2024-03-02T00:25:31.856Z,51.215950
2024-03-02T00:26:31.824Z,51.215961
2024-03-02T00:27:31.842Z,51.216042
2024-03-02T00:28:31.824Z,51.216084
2024-03-02T00:29:31.799Z,51.216061
2024-03-02T00:30:31.817Z,51.215981
2024-03-02T00:31:31.816Z,51.215912
2024-03-02T00:32:31.805Z,51.216106
2024-03-02T00:33:31.804Z,51.216129
2024-03-02T00:34:31.786Z,51.216087
2024-03-02T00:35:31.760Z,51.216133
2024-03-02T00:36:31.761Z,51.216221
2024-03-02T00:37:31.752Z,51.216198
2024-03-02T00:38:31.743Z,51.216171
2024-03-02T00:39:31.743Z,51.216167
2024-03-02T00:40:31.734Z,51.216114
2024-03-02T00:41:31.764Z,51.216125
2024-03-02T00:42:31.745Z,51.216156
2024-03-02T00:43:31.720Z,51.216003
2024-03-02T00:44:31.705Z,51.216034
2024-03-02T00:45:31.726Z,51.215996
2024-03-02T00:46:31.696Z,51.215927
2024-03-02T00:47:31.693Z,51.215904
2024-03-02T00:48:31.739Z,51.215836
2024-03-02T00:49:31.659Z,51.215942
2024-03-02T00:50:31.666Z,51.215958
2024-03-02T00:51:31.741Z,51.216049
2024-03-02T00:52:31.648Z,51.216076
2024-03-02T00:53:31.629Z,51.215992
2024-03-02T00:54:31.649Z,51.216045
2024-03-02T00:55:31.629Z,51.216091
2024-03-02T00:56:31.607Z,51.216057
2024-03-02T00:57:31.721Z,51.216125
2024-03-02T00:58:31.599Z,51.216114
2024-03-02T00:59:31.596Z,51.216106
2024-03-02T01:00:31.639Z,51.216152
2024-03-02T01:01:31.635Z,51.216171
2024-03-02T01:02:31.581Z,51.216114
2024-03-02T01:03:31.665Z,51.215981
2024-03-02T01:04:31.629Z,51.215916
2024-03-02T01:05:31.576Z,51.215973
2024-03-02T01:06:31.648Z,51.216068
2024-03-02T01:07:31.540Z,51.216145
2024-03-02T01:08:31.653Z,51.216118
2024-03-02T01:09:31.567Z,51.216064
2024-03-02T01:10:31.524Z,51.216087
2024-03-02T01:11:31.518Z,51.216141
2024-03-02T01:12:31.540Z,51.216137
2024-03-02T01:13:31.531Z,51.216076
2024-03-02T01:14:31.501Z,51.215969
2024-03-02T01:15:31.508Z,51.215885
2024-03-02T01:16:31.476Z,51.215851
2024-03-02T01:17:31.486Z,51.215656
2024-03-02T01:18:31.497Z,51.215786
2024-03-02T01:19:31.504Z,51.215977
2024-03-02T01:20:31.478Z,51.216042
2024-03-02T01:21:31.470Z,51.215977
2024-03-02T01:22:31.461Z,51.215946
2024-03-02T01:23:31.441Z,51.215897
2024-03-02T01:24:31.474Z,51.215927
2024-03-02T01:25:31.439Z,51.216045
2024-03-02T01:26:31.489Z,51.216114
2024-03-02T01:27:31.420Z,51.216080
2024-03-02T01:28:31.418Z,51.216049
2024-03-02T01:29:31.438Z,51.216103
2024-03-02T01:30:31.433Z,51.216106
2024-03-02T01:31:31.400Z,51.216064
2024-03-02T01:32:31.388Z,51.216125
2024-03-02T01:33:31.401Z,51.216122
2024-03-02T01:34:31.374Z,51.216259
2024-03-02T01:35:31.354Z,51.216190
2024-03-02T01:36:31.647Z,51.216244
2024-03-02T01:37:31.346Z,51.216141
2024-03-02T01:38:31.334Z,51.216164
2024-03-02T01:39:31.422Z,51.216160
2024-03-02T01:40:31.338Z,51.216171
2024-03-02T01:41:31.327Z,51.216114
2024-03-02T01:42:31.577Z,51.216053
2024-03-02T01:43:31.311Z,51.216068
2024-03-02T01:44:31.346Z,51.216122
2024-03-02T01:45:31.325Z,51.216095
2024-03-02T01:46:31.281Z,51.216137
2024-03-02T01:47:31.311Z,51.216137
2024-03-02T01:48:31.318Z,51.216011
2024-03-02T01:49:31.253Z,51.215942
2024-03-02T01:50:31.273Z,51.215981
2024-03-02T01:51:31.287Z,51.215992
2024-03-02T01:52:31.260Z,51.216057
2024-03-02T01:53:32.233Z,51.216072
2024-03-02T01:54:31.291Z,51.216042
2024-03-02T01:55:31.368Z,51.216072
2024-03-02T01:56:31.219Z,51.216103
2024-03-02T01:57:31.246Z,51.216106
2024-03-02T01:58:31.222Z,51.216026
2024-03-02T01:59:31.291Z,51.216106
2024-03-02T02:00:31.233Z,51.216114
2024-03-02T02:01:31.218Z,51.216175
2024-03-02T02:02:31.180Z,51.216061
2024-03-02T02:03:31.222Z,51.216038
2024-03-02T02:04:31.243Z,51.215996
2024-03-02T02:05:31.153Z,51.216064
2024-03-02T02:06:31.175Z,51.216270
2024-03-02T02:07:31.138Z,51.216137
2024-03-02T02:08:31.131Z,51.215870
2024-03-02T02:09:31.173Z,51.215858
2024-03-02T02:10:31.131Z,51.215870
2024-03-02T02:11:31.148Z,51.215912
2024-03-02T02:12:31.127Z,51.215874
2024-03-02T02:13:31.101Z,51.216072
2024-03-02T02:14:31.102Z,51.216076
2024-03-02T02:15:31.232Z,51.216106
2024-03-02T02:16:31.089Z,51.216114
2024-03-02T02:17:31.086Z,51.216076
2024-03-02T02:18:31.076Z,51.216068
2024-03-02T02:19:31.071Z,51.216106
2024-03-02T02:20:31.068Z,51.216118
2024-03-02T02:21:31.104Z,51.216110
2024-03-02T02:22:31.046Z,51.216095
2024-03-02T02:23:31.043Z,51.216133
2024-03-02T02:24:31.036Z,51.216049
2024-03-02T02:25:31.154Z,51.216118
2024-03-02T02:26:31.015Z,51.216152
2024-03-02T02:27:31.049Z,51.216084
2024-03-02T02:28:31.002Z,51.216122
2024-03-02T02:29:30.999Z,51.216068
2024-03-02T02:30:31.083Z,51.216091
2024-03-02T02:31:30.986Z,51.216122
2024-03-02T02:32:30.986Z,51.216114
2024-03-02T02:33:30.991Z,51.216099
2024-03-02T02:34:30.970Z,51.216072
2024-03-02T02:35:30.974Z,51.216087
2024-03-02T02:36:30.981Z,51.216076
2024-03-02T02:37:30.934Z,51.216068
2024-03-02T02:38:30.954Z,51.215988
2024-03-02T02:39:30.976Z,51.215977
2024-03-02T02:40:30.923Z,51.216095
2024-03-02T02:41:30.946Z,51.216034
2024-03-02T02:42:30.994Z,51.216003
2024-03-02T02:43:30.905Z,51.216072
2024-03-02T02:44:30.920Z,51.216030
2024-03-02T02:45:30.972Z,51.215992
2024-03-02T02:46:30.894Z,51.216034
2024-03-02T02:47:30.925Z,51.216026
2024-03-02T02:48:30.909Z,51.216095
2024-03-02T02:49:30.861Z,51.216148
2024-03-02T02:50:30.867Z,51.215988
2024-03-02T02:51:30.895Z,51.216015
2024-03-02T02:52:30.841Z,51.216045
2024-03-02T02:53:30.867Z,51.216030
2024-03-02T02:54:30.858Z,51.216095
2024-03-02T02:55:30.882Z,51.216141
2024-03-02T02:56:30.828Z,51.216068
2024-03-02T02:57:30.874Z,51.216084
2024-03-02T02:58:30.797Z,51.216091
2024-03-02T02:59:30.805Z,51.216125
2024-03-02T03:00:30.981Z,51.216137
2024-03-02T03:01:30.944Z,51.216087
2024-03-02T03:02:30.805Z,51.216095
2024-03-02T03:03:30.820Z,51.216145
2024-03-02T03:04:30.760Z,51.216122
2024-03-02T03:05:30.763Z,51.216152
2024-03-02T03:06:30.780Z,51.216133
2024-03-02T03:07:30.744Z,51.216225
2024-03-02T03:08:30.748Z,51.216145
2024-03-02T03:09:30.769Z,51.216118
2024-03-02T03:10:30.720Z,51.216068
2024-03-02T03:11:30.789Z,51.216030
2024-03-02T03:12:30.745Z,51.216068
2024-03-02T03:13:30.707Z,51.216148
2024-03-02T03:14:30.698Z,51.216110
2024-03-02T03:15:30.731Z,51.216106
2024-03-02T03:16:30.733Z,51.216106
2024-03-02T03:17:30.713Z,51.215939
2024-03-02T03:18:30.717Z,51.216133
2024-03-02T03:19:30.674Z,51.216038
2024-03-02T03:20:30.660Z,51.216099
2024-03-02T03:21:30.682Z,51.216103
2024-03-02T03:22:31.249Z,51.216099
2024-03-02T03:23:30.641Z,51.216019
2024-03-02T03:24:32.265Z,51.216061
2024-03-02T03:25:30.630Z,51.216080
2024-03-02T03:26:30.628Z,51.216099
2024-03-02T03:27:30.645Z,51.216122
2024-03-02T03:28:30.624Z,51.216106
2024-03-02T03:29:30.611Z,51.216129
2024-03-02T03:30:30.608Z,51.216152
2024-03-02T03:31:30.594Z,51.216129
2024-03-02T03:32:30.572Z,51.216145
2024-03-02T03:33:30.612Z,51.216148
2024-03-02T03:34:30.600Z,51.216171
2024-03-02T03:35:30.580Z,51.216122
2024-03-02T03:36:30.561Z,51.216133
2024-03-02T03:37:30.553Z,51.216183
2024-03-02T03:38:30.568Z,51.216164
2024-03-02T03:39:30.553Z,51.216133
2024-03-02T03:40:31.531Z,51.216152
2024-03-02T03:41:30.528Z,51.216152
2024-03-02T03:42:30.518Z,51.216141
2024-03-02T03:43:30.528Z,51.216129
2024-03-02T03:44:30.501Z,51.216103
2024-03-02T03:45:30.552Z,51.216129
2024-03-02T03:46:30.486Z,51.216187
2024-03-02T03:47:30.503Z,51.216175
2024-03-02T03:48:30.506Z,51.216106
2024-03-02T03:49:30.499Z,51.216148
2024-03-02T03:50:30.465Z,51.216164
2024-03-02T03:51:30.466Z,51.216164
2024-03-02T03:52:30.460Z,51.216167
2024-03-02T03:53:30.462Z,51.216145
2024-03-02T03:54:30.489Z,51.216118
2024-03-02T03:55:30.459Z,51.216129
2024-03-02T03:56:30.419Z,51.216141
2024-03-02T03:57:30.438Z,51.216129
2024-03-02T03:58:30.428Z,51.216141
2024-03-02T03:59:30.432Z,51.216148
2024-03-02T04:00:30.413Z,51.216183
2024-03-02T04:01:30.433Z,51.216145
2024-03-02T04:02:30.391Z,51.216133
2024-03-02T04:03:30.388Z,51.216164
2024-03-02T04:04:30.358Z,51.216099
2024-03-02T04:05:30.418Z,51.216042
2024-03-02T04:06:30.359Z,51.216118
2024-03-02T04:07:30.341Z,51.216057
2024-03-02T04:08:30.355Z,51.216068
2024-03-02T04:09:30.353Z,51.216011
2024-03-02T04:10:30.341Z,51.216011
2024-03-02T04:11:31.358Z,51.216133
2024-03-02T04:12:30.340Z,51.216137
2024-03-02T04:13:30.317Z,51.216103
2024-03-02T04:14:30.310Z,51.216003
2024-03-02T04:15:30.315Z,51.215992
2024-03-02T04:16:30.288Z,51.216118
2024-03-02T04:17:30.304Z,51.216095
2024-03-02T04:18:30.280Z,51.216103
2024-03-02T04:19:30.314Z,51.216019
2024-03-02T04:20:30.368Z,51.216106
2024-03-02T04:21:30.311Z,51.215961
2024-03-02T04:22:30.282Z,51.215954
2024-03-02T04:23:30.237Z,51.216026
2024-03-02T04:24:30.288Z,51.216049
2024-03-02T04:25:30.238Z,51.216099
2024-03-02T04:26:30.231Z,51.216183
2024-03-02T04:27:30.250Z,51.216110
2024-03-02T04:28:30.207Z,51.215954
2024-03-02T04:29:30.204Z,51.215961
2024-03-02T04:30:30.223Z,51.215977
2024-03-02T04:31:30.203Z,51.215923
2024-03-02T04:32:30.519Z,51.215858
2024-03-02T04:33:30.255Z,51.215931
2024-03-02T04:34:30.871Z,51.216110
2024-03-02T04:35:30.173Z,51.216133
2024-03-02T04:36:30.205Z,51.216022
2024-03-02T04:37:30.198Z,51.215878
2024-03-02T04:38:30.144Z,51.215870
2024-03-02T04:39:30.430Z,51.215816
2024-03-02T04:40:30.151Z,51.215820
2024-03-02T04:41:30.128Z,51.215775
2024-03-02T04:42:30.256Z,51.215927
2024-03-02T04:43:30.128Z,51.216061
2024-03-02T04:44:30.160Z,51.216087
2024-03-02T04:45:30.221Z,51.216042
2024-03-02T04:46:30.098Z,51.216026
2024-03-02T04:47:30.101Z,51.215954
2024-03-02T04:48:30.191Z,51.216007
2024-03-02T04:49:30.216Z,51.215981
2024-03-02T04:50:30.079Z,51.216057
2024-03-02T04:51:30.142Z,51.215984
2024-03-02T04:52:30.079Z,51.215916
2024-03-02T04:53:30.030Z,51.216068
2024-03-02T04:54:30.095Z,51.216099
2024-03-02T04:55:30.034Z,51.216045
2024-03-02T04:56:30.012Z,51.216038
2024-03-02T04:57:30.043Z,51.216053
2024-03-02T04:58:30.039Z,51.216068
2024-03-02T04:59:30.665Z,51.216103
2024-03-02T05:00:30.086Z,51.216030
2024-03-02T05:01:30.085Z,51.216042
2024-03-02T05:02:29.971Z,51.216080
2024-03-02T05:03:30.003Z,51.216042
2024-03-02T05:04:29.970Z,51.216061
2024-03-02T05:05:29.972Z,51.216072
2024-03-02T05:06:29.948Z,51.216053
2024-03-02T05:07:29.962Z,51.215992
2024-03-02T05:08:29.943Z,51.216091
2024-03-02T05:09:29.974Z,51.216022
2024-03-02T05:10:29.912Z,51.215996
2024-03-02T05:11:29.930Z,51.215950
2024-03-02T05:12:29.978Z,51.215935
2024-03-02T05:13:29.966Z,51.215904
2024-03-02T05:14:29.921Z,51.216003
2024-03-02T05:15:29.987Z,51.216248
2024-03-02T05:16:29.870Z,51.215992
2024-03-02T05:17:29.923Z,51.216045
2024-03-02T05:18:29.884Z,51.216087
2024-03-02T05:19:29.865Z,51.216022
2024-03-02T05:20:29.852Z,51.216141
2024-03-02T05:21:29.861Z,51.216019
2024-03-02T05:22:29.842Z,51.215927
2024-03-02T05:23:29.822Z,51.216045
2024-03-02T05:24:29.856Z,51.216011
2024-03-02T05:25:29.816Z,51.216091
2024-03-02T05:26:29.816Z,51.216320
2024-03-02T05:27:29.844Z,51.216255
2024-03-02T05:28:29.811Z,51.216145
2024-03-02T05:29:29.797Z,51.216152
2024-03-02T05:30:29.816Z,51.216095
2024-03-02T05:31:29.780Z,51.216103
2024-03-02T05:32:29.785Z,51.216080
2024-03-02T05:33:29.911Z,51.216164
2024-03-02T05:34:29.880Z,51.216095
2024-03-02T05:35:29.750Z,51.216084
2024-03-02T05:36:29.756Z,51.216171
2024-03-02T05:37:29.736Z,51.216221
2024-03-02T05:38:29.725Z,51.216217
2024-03-02T05:39:30.881Z,51.216190
2024-03-02T05:40:29.707Z,51.216164
2024-03-02T05:41:29.703Z,51.216114
2024-03-02T05:42:29.781Z,51.216095
2024-03-02T05:43:29.719Z,51.216118
2024-03-02T05:44:29.719Z,51.216030
2024-03-02T05:45:30.785Z,51.216145
2024-03-02T05:46:29.677Z,51.216190
2024-03-02T05:47:29.711Z,51.216293
2024-03-02T05:48:29.693Z,51.216190
2024-03-02T05:49:29.661Z,51.215919
2024-03-02T05:50:29.655Z,51.216064
2024-03-02T05:51:29.653Z,51.216084
2024-03-02T05:52:29.680Z,51.216206
2024-03-02T05:53:29.642Z,51.216309
2024-03-02T05:54:29.730Z,51.216206
2024-03-02T05:55:29.614Z,51.216137
2024-03-02T05:56:29.609Z,51.216129
2024-03-02T05:57:29.646Z,51.216198
2024-03-02T05:58:30.261Z,51.216095
2024-03-02T05:59:29.592Z,51.216053
2024-03-02T06:00:29.703Z,51.216103
2024-03-02T06:01:29.856Z,51.216412
2024-03-02T06:02:29.570Z,51.216278
2024-03-02T06:03:29.743Z,51.216137
2024-03-02T06:04:29.577Z,51.216125
2024-03-02T06:05:29.554Z,51.216103
2024-03-02T06:06:29.612Z,51.216129
2024-03-02T06:07:29.581Z,51.216133
2024-03-02T06:08:29.561Z,51.216232
2024-03-02T06:09:29.572Z,51.216087
2024-03-02T06:10:29.515Z,51.216194
2024-03-02T06:11:29.594Z,51.216095
2024-03-02T06:12:29.524Z,51.216110
2024-03-02T06:13:29.494Z,51.216091
2024-03-02T06:14:29.533Z,51.216022
2024-03-02T06:15:29.563Z,51.216103
2024-03-02T06:16:29.471Z,51.216072
2024-03-02T06:17:29.543Z,51.216187
2024-03-02T06:18:29.635Z,51.216045
2024-03-02T06:19:29.475Z,51.216049
2024-03-02T06:20:31.092Z,51.216125
2024-03-02T06:21:29.500Z,51.216064
2024-03-02T06:22:29.441Z,51.215992
2024-03-02T06:23:29.456Z,51.216145
2024-03-02T06:24:29.436Z,51.216145
2024-03-02T06:25:29.484Z,51.216000
2024-03-02T06:26:29.424Z,51.216152
2024-03-02T06:27:29.455Z,51.216122
2024-03-02T06:28:29.418Z,51.216064
2024-03-02T06:29:29.402Z,51.216183
2024-03-02T06:30:29.435Z,51.216103
2024-03-02T06:31:29.416Z,51.216106
2024-03-02T06:32:29.407Z,51.216164
2024-03-02T06:33:29.429Z,51.216232
2024-03-02T06:34:29.360Z,51.216198
2024-03-02T06:35:29.370Z,51.216087
2024-03-02T06:36:29.532Z,51.216110
2024-03-02T06:37:29.350Z,51.216038
2024-03-02T06:38:29.329Z,51.216072
2024-03-02T06:39:30.279Z,51.216026
2024-03-02T06:40:29.310Z,51.216099
2024-03-02T06:41:29.326Z,51.216072
2024-03-02T06:42:29.323Z,51.216095
2024-03-02T06:43:29.301Z,51.215931
2024-03-02T06:44:29.297Z,51.215939
2024-03-02T06:45:29.308Z,51.216003
2024-03-02T06:46:29.281Z,51.216064
2024-03-02T06:47:29.298Z,51.216129
2024-03-02T06:48:29.266Z,51.216038
2024-03-02T06:49:29.249Z,51.216156
2024-03-02T06:50:30.259Z,51.216049
2024-03-02T06:51:29.318Z,51.216076
2024-03-02T06:52:29.237Z,51.216110
2024-03-02T06:53:29.226Z,51.215977
2024-03-02T06:54:29.312Z,51.215988
2024-03-02T06:55:29.276Z,51.216061
2024-03-02T06:56:29.230Z,51.216076
2024-03-02T06:57:29.230Z,51.216042
2024-03-02T06:58:29.218Z,51.216145
2024-03-02T06:59:29.186Z,51.216095
2024-03-02T07:00:29.217Z,51.216084
2024-03-02T07:01:29.314Z,51.215984
2024-03-02T07:02:29.178Z,51.216114
2024-03-02T07:03:29.201Z,51.216049
2024-03-02T07:04:29.739Z,51.216084
2024-03-02T07:05:29.157Z,51.216084
2024-03-02T07:06:29.262Z,51.216095
2024-03-02T07:07:29.222Z,51.216057
2024-03-02T07:08:29.125Z,51.215992
2024-03-02T07:09:30.240Z,51.215988
2024-03-02T07:10:29.130Z,51.216068
2024-03-02T07:11:29.155Z,51.215984
2024-03-02T07:12:29.142Z,51.215935
2024-03-02T07:13:29.100Z,51.215958
2024-03-02T07:14:29.101Z,51.216049
2024-03-02T07:15:29.129Z,51.216084
2024-03-02T07:16:29.294Z,51.216084
2024-03-02T07:17:29.123Z,51.216122
2024-03-02T07:18:29.097Z,51.216152
2024-03-02T07:19:29.078Z,51.216038
2024-03-02T07:20:29.072Z,51.215992
2024-03-02T07:21:29.089Z,51.216129
2024-03-02T07:22:29.059Z,51.216198
2024-03-02T07:23:29.064Z,51.216095
2024-03-02T07:24:29.052Z,51.216175
2024-03-02T07:27:30.062Z,51.216091
2024-03-02T07:28:29.009Z,51.216183
2024-03-02T07:29:29.171Z,51.216221
2024-03-02T07:30:30.340Z,51.216190
2024-03-02T07:31:29.004Z,51.216179
2024-03-02T07:32:28.993Z,51.216137
2024-03-02T07:33:29.025Z,51.216190
2024-03-02T07:34:28.978Z,51.216160
2024-03-02T07:35:29.067Z,51.216190
2024-03-02T07:36:29.056Z,51.216064
2024-03-02T07:37:28.947Z,51.216042
2024-03-02T07:38:28.980Z,51.215988
2024-03-02T07:39:28.962Z,51.216061
2024-03-02T07:40:28.933Z,51.216190
2024-03-02T07:41:28.943Z,51.216232
2024-03-02T07:42:28.977Z,51.216156
2024-03-02T07:43:28.939Z,51.216125
2024-03-02T07:44:28.915Z,51.216217
2024-03-02T07:45:28.979Z,51.216125
2024-03-02T07:46:28.879Z,51.216152
2024-03-02T07:47:28.921Z,51.216125
2024-03-02T07:48:28.896Z,51.216099
2024-03-02T07:49:28.875Z,51.216148
2024-03-02T07:50:28.859Z,51.216137
2024-03-02T07:51:28.861Z,51.216114
2024-03-02T07:52:28.853Z,51.216087
2024-03-02T07:53:28.827Z,51.216202
2024-03-02T07:54:28.890Z,51.216255
2024-03-02T07:55:28.867Z,51.216274
2024-03-02T07:56:28.876Z,51.216125
2024-03-02T07:57:28.822Z,51.216190
2024-03-02T07:58:28.815Z,51.216209
2024-03-02T07:59:28.810Z,51.216133
2024-03-02T08:00:28.814Z,51.216339
2024-03-02T08:01:29.036Z,51.216183
2024-03-02T08:02:28.787Z,51.215977
2024-03-02T08:03:28.808Z,51.215919
2024-03-02T08:04:28.761Z,51.215931
2024-03-02T08:05:28.763Z,51.215961
2024-03-02T08:06:28.790Z,51.215969
2024-03-02T08:07:28.736Z,51.216007
2024-03-02T08:08:28.734Z,51.215961
2024-03-02T08:09:28.741Z,51.216141
2024-03-02T08:10:28.739Z,51.216187
2024-03-02T08:11:28.855Z,51.216129
2024-03-02T08:12:28.729Z,51.216057
2024-03-02T08:13:28.691Z,51.216076
2024-03-02T08:14:29.245Z,51.216030
2024-03-02T08:15:28.732Z,51.216080
2024-03-02T08:16:29.724Z,51.216148
2024-03-02T08:17:28.689Z,51.216030
2024-03-02T08:18:28.697Z,51.215981
2024-03-02T08:19:28.653Z,51.216026
2024-03-02T08:20:28.654Z,51.216064
2024-03-02T08:21:28.704Z,51.216064
2024-03-02T08:22:28.652Z,51.215984
2024-03-02T08:23:28.631Z,51.215912
2024-03-02T08:24:28.643Z,51.215889
2024-03-02T08:25:28.621Z,51.215698
2024-03-02T08:26:28.605Z,51.215790
2024-03-02T08:27:28.653Z,51.216122
2024-03-02T08:28:28.751Z,51.216187
2024-03-02T08:29:28.579Z,51.216179
2024-03-02T08:30:28.631Z,51.216156
2024-03-02T08:31:28.572Z,51.216160
2024-03-02T08:32:28.684Z,51.216118
2024-03-02T08:33:28.605Z,51.216148
2024-03-02T08:34:28.606Z,51.216106
2024-03-02T08:35:28.568Z,51.216148
2024-03-02T08:36:28.545Z,51.216160
2024-03-02T08:37:28.566Z,51.216194
2024-03-02T08:38:28.522Z,51.216259
2024-03-02T08:39:28.551Z,51.216202
2024-03-02T08:40:28.520Z,51.216228
2024-03-02T08:41:28.522Z,51.216148
2024-03-02T08:42:28.533Z,51.216141
2024-03-02T08:43:28.499Z,51.216152
2024-03-02T08:44:28.510Z,51.216156
2024-03-02T08:45:28.534Z,51.216114
2024-03-02T08:46:28.480Z,51.215977
2024-03-02T08:47:28.509Z,51.216000
2024-03-02T08:48:28.490Z,51.216068
2024-03-02T08:49:28.443Z,51.216053
2024-03-02T08:50:28.439Z,51.216061
2024-03-02T08:51:28.518Z,51.216133
2024-03-02T08:52:28.466Z,51.216110
2024-03-02T08:53:28.440Z,51.216099
2024-03-02T08:54:28.442Z,51.216148
2024-03-02T08:55:28.406Z,51.216160
2024-03-02T08:56:28.440Z,51.216103
2024-03-02T08:57:28.432Z,51.216129
2024-03-02T08:58:28.395Z,51.216125
2024-03-02T08:59:28.391Z,51.216167
2024-03-02T09:00:28.396Z,51.216167
2024-03-02T09:01:28.492Z,51.216198
2024-03-02T09:02:28.379Z,51.216045
2024-03-02T09:03:28.428Z,51.216129
2024-03-02T09:04:29.526Z,51.216206
2024-03-02T09:05:28.357Z,51.216206
2024-03-02T09:06:28.365Z,51.215969
2024-03-02T09:07:28.332Z,51.216087
2024-03-02T09:08:28.331Z,51.216110
2024-03-02T09:09:28.340Z,51.216171
2024-03-02T09:10:28.916Z,51.216167
2024-03-02T09:11:29.361Z,51.216076
2024-03-02T09:12:28.357Z,51.216068
2024-03-02T09:13:28.308Z,51.215950
2024-03-02T09:14:28.296Z,51.215996
2024-03-02T09:15:28.348Z,51.215984
2024-03-02T09:16:28.279Z,51.215942
2024-03-02T09:17:28.278Z,51.215973
2024-03-02T09:18:28.334Z,51.216156
2024-03-02T09:19:28.255Z,51.216057
2024-03-02T09:20:28.244Z,51.216125
2024-03-02T09:21:28.251Z,51.216076
2024-03-02T09:22:28.281Z,51.215851
2024-03-02T09:23:28.248Z,51.215881
2024-03-02T09:24:28.224Z,51.215931
2024-03-02T09:25:28.209Z,51.216057
2024-03-02T09:26:28.200Z,51.216110
2024-03-02T09:27:28.228Z,51.216141
2024-03-02T09:28:28.216Z,51.216137
2024-03-02T09:29:28.180Z,51.216236
2024-03-02T09:30:28.196Z,51.216240
2024-03-02T09:31:28.181Z,51.216274
2024-03-02T09:32:28.189Z,51.216259
2024-03-02T09:33:28.322Z,51.216179
2024-03-02T09:34:28.174Z,51.216145
2024-03-02T09:35:28.220Z,51.216061
2024-03-02T09:36:28.143Z,51.216114
2024-03-02T09:37:28.147Z,51.216167
2024-03-02T09:38:28.157Z,51.216156
2024-03-02T09:39:28.157Z,51.216106
2024-03-02T09:40:28.163Z,51.216110
2024-03-02T09:41:28.114Z,51.216099
2024-03-02T09:42:28.134Z,51.216061
2024-03-02T09:43:28.088Z,51.216122
2024-03-02T09:44:28.089Z,51.216156
2024-03-02T09:45:28.164Z,51.216198
2024-03-02T09:46:28.075Z,51.216099
2024-03-02T09:47:28.127Z,51.216167
2024-03-02T09:48:28.062Z,51.216129
2024-03-02T09:49:28.069Z,51.216118
2024-03-02T09:50:28.044Z,51.216106
2024-03-02T09:51:28.076Z,51.216114
2024-03-02T09:52:28.019Z,51.216148
2024-03-02T09:53:28.045Z,51.216080
2024-03-02T09:54:28.086Z,51.215992
2024-03-02T09:55:28.036Z,51.216030
2024-03-02T09:56:28.002Z,51.216202
2024-03-02T09:57:27.998Z,51.216053
2024-03-02T09:58:27.998Z,51.216061
2024-03-02T09:59:27.981Z,51.216076
2024-03-02T10:00:27.990Z,51.216125
2024-03-02T10:01:28.019Z,51.216171
2024-03-02T10:02:27.969Z,51.216183
2024-03-02T10:03:27.979Z,51.216213
2024-03-02T10:04:27.989Z,51.216228
2024-03-02T10:05:27.957Z,51.216198
2024-03-02T10:06:27.959Z,51.216175
2024-03-02T10:07:27.930Z,51.216114
2024-03-02T10:08:27.917Z,51.216240
2024-03-02T10:09:27.920Z,51.216259
2024-03-02T10:10:27.919Z,51.216198
2024-03-02T10:11:27.906Z,51.216202
2024-03-02T10:12:27.923Z,51.216179
2024-03-02T10:13:27.881Z,51.216133
2024-03-02T10:14:27.878Z,51.216095
2024-03-02T10:15:27.961Z,51.216095
2024-03-02T10:16:27.858Z,51.216137
2024-03-02T10:17:27.871Z,51.216141
2024-03-02T10:18:27.907Z,51.216103
2024-03-02T10:19:27.844Z,51.216068
2024-03-02T10:20:27.846Z,51.216084
2024-03-02T10:21:27.836Z,51.216152
2024-03-02T10:22:27.823Z,51.216167
2024-03-02T10:23:28.736Z,51.216187
2024-03-02T10:24:27.848Z,51.216209
2024-03-02T10:25:37.337Z,51.216259
2024-03-02T10:26:29.815Z,51.216217
2024-03-02T10:27:27.824Z,51.216122
2024-03-02T10:28:27.780Z,51.216152
2024-03-02T10:29:27.782Z,51.216091
2024-03-02T10:30:27.786Z,51.216022
2024-03-02T10:31:27.773Z,51.215954
2024-03-02T10:32:27.779Z,51.215946
2024-03-02T10:33:27.759Z,51.216057
2024-03-02T10:34:27.737Z,51.216011
2024-03-02T10:35:27.729Z,51.216057
2024-03-02T10:36:27.815Z,51.216087
2024-03-02T10:37:27.734Z,51.216087
2024-03-02T10:38:27.724Z,51.216133
2024-03-02T10:39:27.755Z,51.216129
2024-03-02T10:40:27.711Z,51.216042
2024-03-02T10:41:27.689Z,51.216118
2024-03-02T10:42:27.721Z,51.216194
2024-03-02T10:43:27.690Z,51.216217
2024-03-02T10:44:27.689Z,51.216137
2024-03-02T10:45:27.686Z,51.216118
2024-03-02T10:46:27.656Z,51.216034
2024-03-02T10:47:27.679Z,51.216110
2024-03-02T10:48:27.663Z,51.216084
2024-03-02T10:49:27.658Z,51.216156
2024-03-02T10:50:27.668Z,51.216042
2024-03-02T10:51:27.636Z,51.216068
2024-03-02T10:52:27.617Z,51.216042
2024-03-02T10:53:27.623Z,51.216000
2024-03-02T10:54:28.053Z,51.216084
2024-03-02T10:55:27.987Z,51.216133
2024-03-02T10:56:27.624Z,51.216118
2024-03-02T10:57:27.743Z,51.216095
2024-03-02T10:58:27.794Z,51.216103
2024-03-02T10:59:27.700Z,51.216091
2024-03-02T11:00:27.632Z,51.216106
2024-03-02T11:01:27.630Z,51.216030
2024-03-02T11:02:27.549Z,51.216095
2024-03-02T11:03:27.566Z,51.216118
2024-03-02T11:04:27.541Z,51.216194
2024-03-02T11:05:27.539Z,51.216114
2024-03-02T11:06:27.537Z,51.216141
2024-03-02T11:07:27.537Z,51.216228
2024-03-02T11:08:27.516Z,51.216145
2024-03-02T11:09:27.797Z,51.216007
2024-03-02T11:10:27.510Z,51.216042
2024-03-02T11:11:27.557Z,51.216156
2024-03-02T11:12:27.540Z,51.216160
2024-03-02T11:13:27.498Z,51.216145
2024-03-02T11:14:27.487Z,51.216049
2024-03-02T11:15:27.514Z,51.215900
2024-03-02T11:16:27.494Z,51.215893
2024-03-02T11:17:27.458Z,51.215950
2024-03-02T11:18:27.491Z,51.215858
2024-03-02T11:19:27.567Z,51.215973
2024-03-02T11:20:27.477Z,51.215958
2024-03-02T11:21:27.480Z,51.215954
2024-03-02T11:22:27.429Z,51.215931
2024-03-02T11:23:27.418Z,51.216057
2024-03-02T11:24:27.533Z,51.215981
2024-03-02T11:25:27.433Z,51.215992
2024-03-02T11:26:27.408Z,51.216072